Language selection

Weather shortcuts

Northern Lake Huron: Past 24 Hour Conditions

 

Georgian Bay - 45137

11:00 PM EDT 23 June 2024Buoy position: 45.55N 81.0W
Disclaimer

This table is a summary of hourly weather conditions for the past 24 hours.
Please note that these observations might not always be representative of weather conditions over their associated marine area.

Date / Time
(EDT)
Wind(knots) Wave height(m) Wave period(s) Pressure(kPa) Air tempC) Water tempC)
23 June 2024
23:00 NNW 15 gusts 17 0.80 4.1 100.6 17 15
22:00 NNW 15 gusts 18 0.83 4.1 100.5 17 15
21:00 NNW 14 gusts 18 0.82 4.3 100.5 18 15
20:00 NNW 16 gusts 19 0.95 4.4 100.4 18 15
19:00 NNW 17 gusts 20 0.87 4.3 100.3 17 15
18:00 NNW 17 gusts 20 1.04 4.7 100.2 18 15
17:00 NNW 16 gusts 19 1.09 5.0 100.1 17 16
16:00 N 15 gusts 19 1.10 4.5 100.0 17 16
15:00 N 18 gusts 23 0.80 3.5 99.8 17 16
14:00 NNW 15 gusts 21 0.53 2.9 99.7 17 16
13:00 NNW 14 gusts 17 0.40 3.6 99.7 16 16
12:00 NNE 5 gusts 7 0.43 4.1 99.6 16 15
11:00 W 7 gusts 9 0.56 3.8 99.6 16 15
10:00 W 11 gusts 12 0.57 3.6 99.6 16 15
9:00 WSW 12 gusts 15 0.59 4.3 99.6 17 15
8:00 SW 11 gusts 13 0.61 3.5 99.7 17 15
7:00 WSW 8 gusts 10 0.68 3.7 99.7 17 14
6:00 SW 11 gusts 13 0.81 4.3 99.8 17 14
5:00 SSW 13 gusts 17 0.82 4.4 99.9 17 15
4:00 SW 16 gusts 19 0.71 4.3 100.0 18 15
3:00 SW 13 gusts 16 0.59 4.3 100.1 18 15
2:00 SSW 9 gusts 10 0.64 4.1 100.2 17 15
1:00 SSE 10 gusts 13 0.91 4.1 100.3 17 16
0:00 ESE 19 gusts 23 0.79 3.8 100.4 18 16
22 June 2024
23:00 ESE 19 gusts 24 0.64 3.4 100.5 18 16

Zoom-in to make a selection

Map of Great Lakes - Lake Huron marine weather areas N Huron - 45003 W Erie - 45005 S Huron - 45008 Lake Ontario - 45012 Port Stanley - 45132 Prince Edward Point - 45135 Georgian Bay - 45137 Grimsby - 45139 Port Colborne - 45142 South Georgian Bay - 45143 Lake St Clair - 45147 South Lake Huron - 45149 Lake Simcoe - 45151 Lake Nipissing - 45152 North Channel - 45154 Ajax - 45159 Sault Ste. Marie Airport Killarney Greater Sudbury Airport North Bay Airport Gore Bay-Manitoulin Airport Great Duck Island Brockville Grenadier Island Kingston Airport Collingwood Lagoon City Muskoka Airport Parry Sound Harbour Lake Simcoe Regional Airport Wiarton Airport Western Islands Cove Island Goderich Sarnia Chris Hadfield Airport Tobermory Harrow AAFC Long Point Port Weller St. Catharines / Niagara District Airport Southeast Shoal Vineland Station Welland-Pelham Windsor Airport Port Colborne Erieau Point Pelee Burlington Lift Bridge Cobourg Hamilton Munro Int'l Airport Oshawa Executive Airport Point Petre Toronto City Centre Airport CFB Trenton Peterborough Municipal Airport
Legend:
buoy Buoy
land station Land Station

Great Lakes - Lake Huron Area

Another Region

Features

New Predicting and Alerting Coastal Flooding Program

Find out about coastal flooding coverage, forecasts and warnings in your region

Date modified: